sensor_id;sensor_type;location;lat;lon;timestamp;temperature;humidity
23231;DHT22;11784;49.818;8.632;2022-09-17T00:01:02;15.10;76.10
23231;DHT22;11784;49.818;8.632;2022-09-17T00:03:28;15.10;76.60
23231;DHT22;11784;49.818;8.632;2022-09-17T00:06:01;15.10;76.60
23231;DHT22;11784;49.818;8.632;2022-09-17T00:08:28;15.10;76.20
23231;DHT22;11784;49.818;8.632;2022-09-17T00:10:53;15.10;76.20
23231;DHT22;11784;49.818;8.632;2022-09-17T00:13:19;15.10;76.50
23231;DHT22;11784;49.818;8.632;2022-09-17T00:15:45;15.10;76.90
23231;DHT22;11784;49.818;8.632;2022-09-17T00:18:12;15.10;76.70
23231;DHT22;11784;49.818;8.632;2022-09-17T00:20:40;15.00;76.80
23231;DHT22;11784;49.818;8.632;2022-09-17T00:23:06;15.00;76.40
23231;DHT22;11784;49.818;8.632;2022-09-17T00:25:33;15.00;76.90
23231;DHT22;11784;49.818;8.632;2022-09-17T00:27:58;15.00;76.80
23231;DHT22;11784;49.818;8.632;2022-09-17T00:30:24;15.00;76.60
23231;DHT22;11784;49.818;8.632;2022-09-17T00:32:50;15.00;76.60
23231;DHT22;11784;49.818;8.632;2022-09-17T00:35:17;15.00;77.20
23231;DHT22;11784;49.818;8.632;2022-09-17T00:37:43;15.00;76.70
23231;DHT22;11784;49.818;8.632;2022-09-17T00:40:09;15.00;76.60
23231;DHT22;11784;49.818;8.632;2022-09-17T00:42:34;15.00;76.80
23231;DHT22;11784;49.818;8.632;2022-09-17T00:45:00;14.90;76.60
23231;DHT22;11784;49.818;8.632;2022-09-17T00:47:44;14.90;77.00
23231;DHT22;11784;49.818;8.632;2022-09-17T00:50:30;14.90;76.90
23231;DHT22;11784;49.818;8.632;2022-09-17T00:53:04;14.90;76.70
23231;DHT22;11784;49.818;8.632;2022-09-17T00:55:36;14.80;76.60
23231;DHT22;11784;49.818;8.632;2022-09-17T00:58:05;14.80;76.60
23231;DHT22;11784;49.818;8.632;2022-09-17T01:00:32;14.80;76.90
23231;DHT22;11784;49.818;8.632;2022-09-17T01:02:58;14.80;78.20
23231;DHT22;11784;49.818;8.632;2022-09-17T01:05:43;14.80;77.70
23231;DHT22;11784;49.818;8.632;2022-09-17T01:30:51;14.60;77.20
23231;DHT22;11784;49.818;8.632;2022-09-17T01:33:40;14.70;77.10
23231;DHT22;11784;49.818;8.632;2022-09-17T01:36:19;14.60;77.10
23231;DHT22;11784;49.818;8.632;2022-09-17T01:39:04;14.60;77.30
23231;DHT22;11784;49.818;8.632;2022-09-17T01:41:50;14.60;77.20
23231;DHT22;11784;49.818;8.632;2022-09-17T01:44:38;14.60;77.40
23231;DHT22;11784;49.818;8.632;2022-09-17T01:47:30;14.60;77.30
23231;DHT22;11784;49.818;8.632;2022-09-17T01:50:05;14.60;77.60
23231;DHT22;11784;49.818;8.632;2022-09-17T01:52:35;14.60;77.30
23231;DHT22;11784;49.818;8.632;2022-09-17T01:55:04;14.60;77.30
23231;DHT22;11784;49.818;8.632;2022-09-17T01:57:35;14.60;77.30
23231;DHT22;11784;49.818;8.632;2022-09-17T02:00:08;14.60;77.30
23231;DHT22;11784;49.818;8.632;2022-09-17T02:08:19;14.70;77.10
23231;DHT22;11784;49.818;8.632;2022-09-17T02:10:50;14.70;77.30
23231;DHT22;11784;49.818;8.632;2022-09-17T02:13:31;14.70;77.70
23231;DHT22;11784;49.818;8.632;2022-09-17T02:16:05;14.70;77.20
23231;DHT22;11784;49.818;8.632;2022-09-17T02:18:36;14.70;76.70
23231;DHT22;11784;49.818;8.632;2022-09-17T02:21:12;14.80;77.10
23231;DHT22;11784;49.818;8.632;2022-09-17T02:23:51;14.80;76.70
23231;DHT22;11784;49.818;8.632;2022-09-17T02:26:22;14.80;76.60
23231;DHT22;11784;49.818;8.632;2022-09-17T02:28:53;14.80;76.50
23231;DHT22;11784;49.818;8.632;2022-09-17T02:31:21;14.80;76.60
23231;DHT22;11784;49.818;8.632;2022-09-17T02:33:49;14.80;76.50
23231;DHT22;11784;49.818;8.632;2022-09-17T02:36:17;14.80;76.40
23231;DHT22;11784;49.818;8.632;2022-09-17T02:38:44;14.80;76.90
23231;DHT22;11784;49.818;8.632;2022-09-17T02:41:16;14.80;77.40
23231;DHT22;11784;49.818;8.632;2022-09-17T02:57:37;14.90;77.20
23231;DHT22;11784;49.818;8.632;2022-09-17T03:02:46;14.90;76.60
23231;DHT22;11784;49.818;8.632;2022-09-17T03:05:14;15.00;76.20
23231;DHT22;11784;49.818;8.632;2022-09-17T03:07:41;15.00;76.70
23231;DHT22;11784;49.818;8.632;2022-09-17T03:10:07;15.00;76.60
23231;DHT22;11784;49.818;8.632;2022-09-17T03:12:34;15.00;76.10
23231;DHT22;11784;49.818;8.632;2022-09-17T03:14:59;14.90;76.40
23231;DHT22;11784;49.818;8.632;2022-09-17T03:17:25;15.00;76.80
23231;DHT22;11784;49.818;8.632;2022-09-17T03:19:51;15.00;76.60
23231;DHT22;11784;49.818;8.632;2022-09-17T03:22:16;14.90;76.90
23231;DHT22;11784;49.818;8.632;2022-09-17T03:24:42;15.00;76.90
23231;DHT22;11784;49.818;8.632;2022-09-17T03:27:07;15.00;76.60
23231;DHT22;11784;49.818;8.632;2022-09-17T03:29:33;15.00;76.70
23231;DHT22;11784;49.818;8.632;2022-09-17T03:31:58;15.00;76.90
23231;DHT22;11784;49.818;8.632;2022-09-17T03:34:25;15.00;76.60
23231;DHT22;11784;49.818;8.632;2022-09-17T03:36:50;15.00;76.70
23231;DHT22;11784;49.818;8.632;2022-09-17T03:39:16;15.00;76.60
23231;DHT22;11784;49.818;8.632;2022-09-17T03:41:41;15.00;76.70
23231;DHT22;11784;49.818;8.632;2022-09-17T03:44:08;15.00;77.00
23231;DHT22;11784;49.818;8.632;2022-09-17T03:46:37;15.00;76.40
23231;DHT22;11784;49.818;8.632;2022-09-17T03:49:03;15.00;76.90
23231;DHT22;11784;49.818;8.632;2022-09-17T03:51:28;15.00;77.00
23231;DHT22;11784;49.818;8.632;2022-09-17T03:53:54;15.00;76.80
23231;DHT22;11784;49.818;8.632;2022-09-17T03:56:19;15.00;77.50
23231;DHT22;11784;49.818;8.632;2022-09-17T03:58:45;15.00;77.50
23231;DHT22;11784;49.818;8.632;2022-09-17T04:01:10;15.00;77.60
23231;DHT22;11784;49.818;8.632;2022-09-17T04:03:36;15.10;77.20
23231;DHT22;11784;49.818;8.632;2022-09-17T04:06:01;15.10;77.80
23231;DHT22;11784;49.818;8.632;2022-09-17T04:08:27;15.10;77.90
23231;DHT22;11784;49.818;8.632;2022-09-17T04:10:53;15.10;77.00
23231;DHT22;11784;49.818;8.632;2022-09-17T04:13:19;15.10;77.40
23231;DHT22;11784;49.818;8.632;2022-09-17T04:15:45;15.10;77.60
23231;DHT22;11784;49.818;8.632;2022-09-17T04:18:11;15.10;77.20
23231;DHT22;11784;49.818;8.632;2022-09-17T04:20:37;15.10;76.80
23231;DHT22;11784;49.818;8.632;2022-09-17T04:23:03;15.10;77.20
23231;DHT22;11784;49.818;8.632;2022-09-17T04:25:28;15.20;77.30
23231;DHT22;11784;49.818;8.632;2022-09-17T04:27:55;15.20;77.60
23231;DHT22;11784;49.818;8.632;2022-09-17T04:30:20;15.20;77.60
23231;DHT22;11784;49.818;8.632;2022-09-17T04:32:46;15.20;77.10
23231;DHT22;11784;49.818;8.632;2022-09-17T04:35:12;15.20;76.70
23231;DHT22;11784;49.818;8.632;2022-09-17T04:37:38;15.20;76.70
23231;DHT22;11784;49.818;8.632;2022-09-17T04:40:04;15.20;76.00
23231;DHT22;11784;49.818;8.632;2022-09-17T04:42:30;15.20;76.20
23231;DHT22;11784;49.818;8.632;2022-09-17T04:44:55;15.20;76.60
23231;DHT22;11784;49.818;8.632;2022-09-17T04:47:22;15.20;76.70
23231;DHT22;11784;49.818;8.632;2022-09-17T04:49:48;15.10;76.40
23231;DHT22;11784;49.818;8.632;2022-09-17T04:52:13;15.10;76.80
23231;DHT22;11784;49.818;8.632;2022-09-17T04:54:39;15.10;76.90
23231;DHT22;11784;49.818;8.632;2022-09-17T04:57:05;15.00;78.20
23231;DHT22;11784;49.818;8.632;2022-09-17T04:59:30;15.10;78.00
23231;DHT22;11784;49.818;8.632;2022-09-17T05:01:56;15.10;78.20
23231;DHT22;11784;49.818;8.632;2022-09-17T05:04:22;15.10;78.30
23231;DHT22;11784;49.818;8.632;2022-09-17T05:06:47;15.10;78.60
23231;DHT22;11784;49.818;8.632;2022-09-17T05:09:13;15.10;79.00
23231;DHT22;11784;49.818;8.632;2022-09-17T05:11:39;15.10;78.20
23231;DHT22;11784;49.818;8.632;2022-09-17T05:14:05;15.10;78.70
23231;DHT22;11784;49.818;8.632;2022-09-17T05:16:31;15.10;78.80
23231;DHT22;11784;49.818;8.632;2022-09-17T05:18:56;15.10;79.20
23231;DHT22;11784;49.818;8.632;2022-09-17T05:21:22;15.10;79.10
23231;DHT22;11784;49.818;8.632;2022-09-17T05:23:48;15.10;79.80
23231;DHT22;11784;49.818;8.632;2022-09-17T05:26:14;15.10;80.10
23231;DHT22;11784;49.818;8.632;2022-09-17T05:28:40;15.10;80.70
23231;DHT22;11784;49.818;8.632;2022-09-17T05:31:05;15.00;81.10
23231;DHT22;11784;49.818;8.632;2022-09-17T05:33:31;15.00;81.10
23231;DHT22;11784;49.818;8.632;2022-09-17T05:35:57;15.10;81.60
23231;DHT22;11784;49.818;8.632;2022-09-17T05:38:22;15.10;80.90
23231;DHT22;11784;49.818;8.632;2022-09-17T05:40:48;15.10;80.50
23231;DHT22;11784;49.818;8.632;2022-09-17T05:43:14;15.10;81.50
23231;DHT22;11784;49.818;8.632;2022-09-17T05:45:40;15.10;81.30
23231;DHT22;11784;49.818;8.632;2022-09-17T05:48:07;15.10;81.70
23231;DHT22;11784;49.818;8.632;2022-09-17T05:50:34;15.20;81.70
23231;DHT22;11784;49.818;8.632;2022-09-17T05:53:05;15.20;81.90
23231;DHT22;11784;49.818;8.632;2022-09-17T05:55:32;15.20;82.70
23231;DHT22;11784;49.818;8.632;2022-09-17T05:57:57;15.20;81.70
23231;DHT22;11784;49.818;8.632;2022-09-17T06:00:23;15.20;81.40
23231;DHT22;11784;49.818;8.632;2022-09-17T06:02:56;15.20;81.90
23231;DHT22;11784;49.818;8.632;2022-09-17T06:05:23;15.20;82.50
23231;DHT22;11784;49.818;8.632;2022-09-17T06:07:49;15.30;83.20
23231;DHT22;11784;49.818;8.632;2022-09-17T06:10:14;15.30;83.20
23231;DHT22;11784;49.818;8.632;2022-09-17T06:12:40;15.30;82.70
23231;DHT22;11784;49.818;8.632;2022-09-17T06:15:06;15.40;82.70
23231;DHT22;11784;49.818;8.632;2022-09-17T06:17:33;15.30;82.60
23231;DHT22;11784;49.818;8.632;2022-09-17T06:19:59;15.40;83.10
23231;DHT22;11784;49.818;8.632;2022-09-17T06:22:25;15.40;83.10
23231;DHT22;11784;49.818;8.632;2022-09-17T06:24:50;15.40;83.30
23231;DHT22;11784;49.818;8.632;2022-09-17T06:27:16;15.40;83.30
23231;DHT22;11784;49.818;8.632;2022-09-17T06:29:41;15.40;82.70
23231;DHT22;11784;49.818;8.632;2022-09-17T06:32:07;15.40;83.20
23231;DHT22;11784;49.818;8.632;2022-09-17T06:34:35;15.40;83.00
23231;DHT22;11784;49.818;8.632;2022-09-17T06:37:01;15.40;82.80
23231;DHT22;11784;49.818;8.632;2022-09-17T06:39:27;15.40;83.50
23231;DHT22;11784;49.818;8.632;2022-09-17T06:41:52;15.40;83.20
23231;DHT22;11784;49.818;8.632;2022-09-17T06:44:18;15.30;83.20
23231;DHT22;11784;49.818;8.632;2022-09-17T06:46:43;15.30;83.60
23231;DHT22;11784;49.818;8.632;2022-09-17T06:49:09;15.40;83.70
23231;DHT22;11784;49.818;8.632;2022-09-17T06:51:35;15.40;83.40
23231;DHT22;11784;49.818;8.632;2022-09-17T06:54:01;15.30;83.40
23231;DHT22;11784;49.818;8.632;2022-09-17T06:56:27;15.40;84.20
23231;DHT22;11784;49.818;8.632;2022-09-17T06:58:53;15.50;83.80
23231;DHT22;11784;49.818;8.632;2022-09-17T07:01:18;15.40;83.80
23231;DHT22;11784;49.818;8.632;2022-09-17T07:03:44;15.50;82.50
23231;DHT22;11784;49.818;8.632;2022-09-17T07:06:10;15.50;80.80
23231;DHT22;11784;49.818;8.632;2022-09-17T07:08:36;15.50;79.80
23231;DHT22;11784;49.818;8.632;2022-09-17T07:11:03;15.50;80.30
23231;DHT22;11784;49.818;8.632;2022-09-17T07:13:28;15.50;80.10
23231;DHT22;11784;49.818;8.632;2022-09-17T07:15:55;15.40;79.80
23231;DHT22;11784;49.818;8.632;2022-09-17T07:18:22;15.40;79.70
23231;DHT22;11784;49.818;8.632;2022-09-17T07:20:55;15.40;79.10
23231;DHT22;11784;49.818;8.632;2022-09-17T07:23:25;15.40;79.70
23231;DHT22;11784;49.818;8.632;2022-09-17T07:25:56;15.40;79.50
23231;DHT22;11784;49.818;8.632;2022-09-17T07:28:22;15.40;79.60
23231;DHT22;11784;49.818;8.632;2022-09-17T07:30:49;15.40;79.30
23231;DHT22;11784;49.818;8.632;2022-09-17T07:33:16;15.40;79.40
23231;DHT22;11784;49.818;8.632;2022-09-17T07:35:42;15.40;80.20
23231;DHT22;11784;49.818;8.632;2022-09-17T07:38:08;15.50;80.20
23231;DHT22;11784;49.818;8.632;2022-09-17T07:40:33;15.50;80.30
23231;DHT22;11784;49.818;8.632;2022-09-17T07:42:59;15.60;80.20
23231;DHT22;11784;49.818;8.632;2022-09-17T07:45:24;15.60;79.10
23231;DHT22;11784;49.818;8.632;2022-09-17T07:47:50;15.60;79.10
23231;DHT22;11784;49.818;8.632;2022-09-17T07:50:15;15.70;79.40
23231;DHT22;11784;49.818;8.632;2022-09-17T07:52:45;15.70;78.70
23231;DHT22;11784;49.818;8.632;2022-09-17T07:55:12;15.70;79.20
23231;DHT22;11784;49.818;8.632;2022-09-17T07:57:37;15.70;79.10
23231;DHT22;11784;49.818;8.632;2022-09-17T08:00:03;15.80;79.80
23231;DHT22;11784;49.818;8.632;2022-09-17T08:02:30;15.90;80.20
23231;DHT22;11784;49.818;8.632;2022-09-17T08:04:55;15.90;78.20
23231;DHT22;11784;49.818;8.632;2022-09-17T08:07:21;16.00;78.20
23231;DHT22;11784;49.818;8.632;2022-09-17T08:09:47;16.00;78.10
23231;DHT22;11784;49.818;8.632;2022-09-17T08:12:12;16.00;78.20
23231;DHT22;11784;49.818;8.632;2022-09-17T08:14:38;16.10;76.70
23231;DHT22;11784;49.818;8.632;2022-09-17T08:17:06;16.10;76.50
23231;DHT22;11784;49.818;8.632;2022-09-17T08:19:32;16.10;76.60
23231;DHT22;11784;49.818;8.632;2022-09-17T08:21:58;16.20;75.10
23231;DHT22;11784;49.818;8.632;2022-09-17T08:24:23;16.10;73.20
23231;DHT22;11784;49.818;8.632;2022-09-17T08:26:49;16.10;74.00
23231;DHT22;11784;49.818;8.632;2022-09-17T08:29:14;16.10;73.80
23231;DHT22;11784;49.818;8.632;2022-09-17T08:31:40;16.00;73.80
23231;DHT22;11784;49.818;8.632;2022-09-17T08:34:09;16.00;73.40
23231;DHT22;11784;49.818;8.632;2022-09-17T08:36:35;16.00;72.80
23231;DHT22;11784;49.818;8.632;2022-09-17T08:39:01;16.00;72.70
23231;DHT22;11784;49.818;8.632;2022-09-17T08:46:33;16.10;70.40
23231;DHT22;11784;49.818;8.632;2022-09-17T08:52:14;16.20;71.00
23231;DHT22;11784;49.818;8.632;2022-09-17T09:00:21;16.10;70.40
23231;DHT22;11784;49.818;8.632;2022-09-17T09:05:45;16.20;71.10
23231;DHT22;11784;49.818;8.632;2022-09-17T09:08:46;16.20;71.20
23231;DHT22;11784;49.818;8.632;2022-09-17T09:11:15;16.20;71.00
23231;DHT22;11784;49.818;8.632;2022-09-17T09:13:48;16.30;72.30
23231;DHT22;11784;49.818;8.632;2022-09-17T09:16:21;16.40;70.70
23231;DHT22;11784;49.818;8.632;2022-09-17T09:18:51;16.40;69.70
23231;DHT22;11784;49.818;8.632;2022-09-17T09:21:29;16.50;67.80
23231;DHT22;11784;49.818;8.632;2022-09-17T09:26:44;16.50;67.70
23231;DHT22;11784;49.818;8.632;2022-09-17T09:29:41;16.50;68.20
23231;DHT22;11784;49.818;8.632;2022-09-17T09:32:18;16.50;67.30
23231;DHT22;11784;49.818;8.632;2022-09-17T09:34:48;16.60;67.60
23231;DHT22;11784;49.818;8.632;2022-09-17T09:37:19;16.70;66.60
23231;DHT22;11784;49.818;8.632;2022-09-17T09:39:48;16.80;67.20
23231;DHT22;11784;49.818;8.632;2022-09-17T09:42:24;16.80;67.40
23231;DHT22;11784;49.818;8.632;2022-09-17T09:44:51;16.90;67.80
23231;DHT22;11784;49.818;8.632;2022-09-17T09:47:44;17.00;65.70
23231;DHT22;11784;49.818;8.632;2022-09-17T09:50:37;17.00;64.60
23231;DHT22;11784;49.818;8.632;2022-09-17T09:58:48;17.30;62.90
23231;DHT22;11784;49.818;8.632;2022-09-17T10:01:16;17.40;61.40
23231;DHT22;11784;49.818;8.632;2022-09-17T10:03:45;17.30;60.10
23231;DHT22;11784;49.818;8.632;2022-09-17T10:06:12;17.40;61.20
23231;DHT22;11784;49.818;8.632;2022-09-17T10:09:25;17.40;61.40
23231;DHT22;11784;49.818;8.632;2022-09-17T10:11:28;17.40;59.30
23231;DHT22;11784;49.818;8.632;2022-09-17T10:14:27;17.30;58.70
23231;DHT22;11784;49.818;8.632;2022-09-17T10:17:21;17.10;59.20
23231;DHT22;11784;49.818;8.632;2022-09-17T10:20:16;16.70;66.60
23231;DHT22;11784;49.818;8.632;2022-09-17T10:22:44;16.30;77.40
23231;DHT22;11784;49.818;8.632;2022-09-17T10:25:22;15.70;82.80
23231;DHT22;11784;49.818;8.632;2022-09-17T10:27:49;15.40;84.90
23231;DHT22;11784;49.818;8.632;2022-09-17T10:30:15;15.10;87.40
23231;DHT22;11784;49.818;8.632;2022-09-17T10:32:42;14.90;88.60
23231;DHT22;11784;49.818;8.632;2022-09-17T10:37:52;14.60;90.40
23231;DHT22;11784;49.818;8.632;2022-09-17T10:42:43;14.50;92.40
23231;DHT22;11784;49.818;8.632;2022-09-17T10:45:26;14.50;92.70
23231;DHT22;11784;49.818;8.632;2022-09-17T10:47:54;14.60;92.80
23231;DHT22;11784;49.818;8.632;2022-09-17T10:50:27;14.70;92.80
23231;DHT22;11784;49.818;8.632;2022-09-17T10:53:00;14.70;93.40
23231;DHT22;11784;49.818;8.632;2022-09-17T10:56:02;14.80;93.90
23231;DHT22;11784;49.818;8.632;2022-09-17T10:58:54;15.00;92.70
23231;DHT22;11784;49.818;8.632;2022-09-17T11:07:50;15.10;91.70
23231;DHT22;11784;49.818;8.632;2022-09-17T11:18:20;15.30;91.50
23231;DHT22;11784;49.818;8.632;2022-09-17T11:21:06;15.40;92.30
23231;DHT22;11784;49.818;8.632;2022-09-17T11:34:44;15.90;89.50
23231;DHT22;11784;49.818;8.632;2022-09-17T11:37:35;16.00;87.30
23231;DHT22;11784;49.818;8.632;2022-09-17T11:40:12;16.00;87.40
23231;DHT22;11784;49.818;8.632;2022-09-17T11:42:51;16.10;84.50
23231;DHT22;11784;49.818;8.632;2022-09-17T11:45:26;16.20;87.10
23231;DHT22;11784;49.818;8.632;2022-09-17T11:47:59;16.30;87.20
23231;DHT22;11784;49.818;8.632;2022-09-17T11:50:45;16.30;85.80
23231;DHT22;11784;49.818;8.632;2022-09-17T11:56:02;16.50;87.50
23231;DHT22;11784;49.818;8.632;2022-09-17T12:01:25;16.70;83.50
23231;DHT22;11784;49.818;8.632;2022-09-17T12:06:43;16.80;82.80
23231;DHT22;11784;49.818;8.632;2022-09-17T12:09:17;16.80;81.80
23231;DHT22;11784;49.818;8.632;2022-09-17T12:14:30;16.80;76.60
23231;DHT22;11784;49.818;8.632;2022-09-17T12:17:07;16.80;77.30
23231;DHT22;11784;49.818;8.632;2022-09-17T12:19:40;16.80;74.80
23231;DHT22;11784;49.818;8.632;2022-09-17T12:22:26;16.80;75.30
23231;DHT22;11784;49.818;8.632;2022-09-17T12:24:54;16.80;76.80
23231;DHT22;11784;49.818;8.632;2022-09-17T12:30:18;16.90;73.60
23231;DHT22;11784;49.818;8.632;2022-09-17T12:32:56;17.00;71.90
23231;DHT22;11784;49.818;8.632;2022-09-17T12:35:41;17.10;72.20
23231;DHT22;11784;49.818;8.632;2022-09-17T12:38:45;17.20;68.70
23231;DHT22;11784;49.818;8.632;2022-09-17T12:41:19;17.20;69.20
23231;DHT22;11784;49.818;8.632;2022-09-17T12:47:23;17.30;68.50
23231;DHT22;11784;49.818;8.632;2022-09-17T12:53:01;17.30;66.40
23231;DHT22;11784;49.818;8.632;2022-09-17T12:55:46;17.30;66.00
23231;DHT22;11784;49.818;8.632;2022-09-17T13:01:06;17.30;67.40
23231;DHT22;11784;49.818;8.632;2022-09-17T13:03:38;17.30;66.90
23231;DHT22;11784;49.818;8.632;2022-09-17T13:12:09;17.30;64.10
23231;DHT22;11784;49.818;8.632;2022-09-17T13:17:49;17.30;64.20
23231;DHT22;11784;49.818;8.632;2022-09-17T13:23:40;17.60;65.70
23231;DHT22;11784;49.818;8.632;2022-09-17T13:26:06;17.60;63.30
23231;DHT22;11784;49.818;8.632;2022-09-17T13:28:41;17.70;64.00
23231;DHT22;11784;49.818;8.632;2022-09-17T13:31:07;17.60;60.70
23231;DHT22;11784;49.818;8.632;2022-09-17T13:33:53;17.60;61.90
23231;DHT22;11784;49.818;8.632;2022-09-17T13:39:45;17.50;62.20
23231;DHT22;11784;49.818;8.632;2022-09-17T13:42:13;17.50;62.10
23231;DHT22;11784;49.818;8.632;2022-09-17T13:44:43;17.70;61.70
23231;DHT22;11784;49.818;8.632;2022-09-17T13:47:13;17.70;63.10
23231;DHT22;11784;49.818;8.632;2022-09-17T13:49:50;17.80;61.80
23231;DHT22;11784;49.818;8.632;2022-09-17T13:52:39;17.90;60.20
23231;DHT22;11784;49.818;8.632;2022-09-17T13:55:07;17.90;59.40
23231;DHT22;11784;49.818;8.632;2022-09-17T13:57:44;17.80;60.10
23231;DHT22;11784;49.818;8.632;2022-09-17T14:11:01;18.90;59.50
23231;DHT22;11784;49.818;8.632;2022-09-17T14:13:50;19.20;58.30
23231;DHT22;11784;49.818;8.632;2022-09-17T14:21:55;20.80;54.20
23231;DHT22;11784;49.818;8.632;2022-09-17T14:27:50;22.90;51.50
23231;DHT22;11784;49.818;8.632;2022-09-17T14:30:22;24.20;47.10
23231;DHT22;11784;49.818;8.632;2022-09-17T14:35:48;26.70;41.40
23231;DHT22;11784;49.818;8.632;2022-09-17T14:38:30;26.90;39.20
23231;DHT22;11784;49.818;8.632;2022-09-17T14:41:38;26.50;40.10
23231;DHT22;11784;49.818;8.632;2022-09-17T14:44:19;25.40;41.50
23231;DHT22;11784;49.818;8.632;2022-09-17T14:47:14;24.40;43.20
23231;DHT22;11784;49.818;8.632;2022-09-17T14:49:41;23.40;45.40
23231;DHT22;11784;49.818;8.632;2022-09-17T14:52:31;23.10;46.40
23231;DHT22;11784;49.818;8.632;2022-09-17T14:55:16;22.80;46.20
23231;DHT22;11784;49.818;8.632;2022-09-17T14:57:53;22.40;46.40
23231;DHT22;11784;49.818;8.632;2022-09-17T15:00:24;22.40;47.40
23231;DHT22;11784;49.818;8.632;2022-09-17T15:02:55;22.50;46.90
23231;DHT22;11784;49.818;8.632;2022-09-17T15:05:31;22.60;46.20
23231;DHT22;11784;49.818;8.632;2022-09-17T15:08:13;22.70;46.60
23231;DHT22;11784;49.818;8.632;2022-09-17T15:11:01;22.50;46.40
23231;DHT22;11784;49.818;8.632;2022-09-17T15:13:35;22.10;47.10
23231;DHT22;11784;49.818;8.632;2022-09-17T15:16:24;21.60;48.30
23231;DHT22;11784;49.818;8.632;2022-09-17T15:19:03;21.00;49.60
23231;DHT22;11784;49.818;8.632;2022-09-17T15:21:38;20.60;50.30
23231;DHT22;11784;49.818;8.632;2022-09-17T15:26:51;20.00;52.60
23231;DHT22;11784;49.818;8.632;2022-09-17T15:29:20;19.70;53.60
23231;DHT22;11784;49.818;8.632;2022-09-17T15:31:47;19.40;54.30
23231;DHT22;11784;49.818;8.632;2022-09-17T15:34:13;19.20;55.00
23231;DHT22;11784;49.818;8.632;2022-09-17T15:36:38;19.00;56.40
23231;DHT22;11784;49.818;8.632;2022-09-17T15:39:28;18.80;56.40
23231;DHT22;11784;49.818;8.632;2022-09-17T15:41:56;18.60;56.20
23231;DHT22;11784;49.818;8.632;2022-09-17T15:44:25;18.50;56.30
23231;DHT22;11784;49.818;8.632;2022-09-17T15:46:54;18.30;57.30
23231;DHT22;11784;49.818;8.632;2022-09-17T15:49:34;18.10;59.20
23231;DHT22;11784;49.818;8.632;2022-09-17T15:52:29;18.00;62.70
23231;DHT22;11784;49.818;8.632;2022-09-17T15:54:58;17.70;64.40
23231;DHT22;11784;49.818;8.632;2022-09-17T15:57:25;17.60;65.50
23231;DHT22;11784;49.818;8.632;2022-09-17T15:59:52;17.40;66.90
23231;DHT22;11784;49.818;8.632;2022-09-17T16:02:27;17.30;68.20
23231;DHT22;11784;49.818;8.632;2022-09-17T16:07:41;17.20;68.90
23231;DHT22;11784;49.818;8.632;2022-09-17T16:10:08;17.10;69.00
23231;DHT22;11784;49.818;8.632;2022-09-17T16:12:35;17.00;70.20
23231;DHT22;11784;49.818;8.632;2022-09-17T16:15:01;17.00;71.30
23231;DHT22;11784;49.818;8.632;2022-09-17T16:17:43;16.90;71.90
23231;DHT22;11784;49.818;8.632;2022-09-17T16:22:40;16.90;73.10
23231;DHT22;11784;49.818;8.632;2022-09-17T16:25:06;16.80;73.40
23231;DHT22;11784;49.818;8.632;2022-09-17T16:27:58;16.80;74.70
23231;DHT22;11784;49.818;8.632;2022-09-17T16:30:22;16.80;75.50
23231;DHT22;11784;49.818;8.632;2022-09-17T16:32:48;16.80;75.50
23231;DHT22;11784;49.818;8.632;2022-09-17T16:35:19;16.80;75.30
23231;DHT22;11784;49.818;8.632;2022-09-17T16:37:50;16.80;75.10
23231;DHT22;11784;49.818;8.632;2022-09-17T16:40:16;16.80;74.70
23231;DHT22;11784;49.818;8.632;2022-09-17T16:42:42;16.70;73.10
23231;DHT22;11784;49.818;8.632;2022-09-17T16:45:08;16.70;73.20
23231;DHT22;11784;49.818;8.632;2022-09-17T16:47:38;16.70;73.20
23231;DHT22;11784;49.818;8.632;2022-09-17T16:50:08;16.70;73.30
23231;DHT22;11784;49.818;8.632;2022-09-17T16:52:35;16.70;73.20
23231;DHT22;11784;49.818;8.632;2022-09-17T16:55:01;16.70;72.80
23231;DHT22;11784;49.818;8.632;2022-09-17T16:57:26;16.70;73.00
23231;DHT22;11784;49.818;8.632;2022-09-17T16:59:52;16.70;73.10
23231;DHT22;11784;49.818;8.632;2022-09-17T17:02:19;16.70;72.70
23231;DHT22;11784;49.818;8.632;2022-09-17T17:04:44;16.60;72.30
23231;DHT22;11784;49.818;8.632;2022-09-17T17:07:10;16.60;73.10
23231;DHT22;11784;49.818;8.632;2022-09-17T17:09:36;16.50;73.20
23231;DHT22;11784;49.818;8.632;2022-09-17T17:12:02;16.50;72.70
23231;DHT22;11784;49.818;8.632;2022-09-17T17:14:28;16.40;72.90
23231;DHT22;11784;49.818;8.632;2022-09-17T17:16:54;16.40;73.40
23231;DHT22;11784;49.818;8.632;2022-09-17T17:19:19;16.40;72.10
23231;DHT22;11784;49.818;8.632;2022-09-17T17:21:44;16.40;72.20
23231;DHT22;11784;49.818;8.632;2022-09-17T17:24:10;16.30;72.00
23231;DHT22;11784;49.818;8.632;2022-09-17T17:26:36;16.30;71.40
23231;DHT22;11784;49.818;8.632;2022-09-17T17:29:02;16.20;71.60
23231;DHT22;11784;49.818;8.632;2022-09-17T17:31:27;16.20;71.70
23231;DHT22;11784;49.818;8.632;2022-09-17T17:33:53;16.20;71.80
23231;DHT22;11784;49.818;8.632;2022-09-17T17:36:19;16.20;71.20
23231;DHT22;11784;49.818;8.632;2022-09-17T17:38:45;16.20;71.10
23231;DHT22;11784;49.818;8.632;2022-09-17T17:41:12;16.10;71.50
23231;DHT22;11784;49.818;8.632;2022-09-17T17:43:39;16.10;72.00
23231;DHT22;11784;49.818;8.632;2022-09-17T17:46:06;16.10;71.70
23231;DHT22;11784;49.818;8.632;2022-09-17T17:48:32;16.10;71.40
23231;DHT22;11784;49.818;8.632;2022-09-17T17:51:06;16.00;70.90
23231;DHT22;11784;49.818;8.632;2022-09-17T17:53:32;15.90;71.70
23231;DHT22;11784;49.818;8.632;2022-09-17T17:56:00;15.90;71.40
23231;DHT22;11784;49.818;8.632;2022-09-17T17:58:26;15.90;71.10
23231;DHT22;11784;49.818;8.632;2022-09-17T18:00:52;15.90;71.40
23231;DHT22;11784;49.818;8.632;2022-09-17T18:03:18;15.90;72.30
23231;DHT22;11784;49.818;8.632;2022-09-17T18:05:45;15.90;72.10
23231;DHT22;11784;49.818;8.632;2022-09-17T18:08:10;15.90;72.50
23231;DHT22;11784;49.818;8.632;2022-09-17T18:10:36;15.90;73.30
23231;DHT22;11784;49.818;8.632;2022-09-17T18:13:01;15.90;75.20
23231;DHT22;11784;49.818;8.632;2022-09-17T18:15:27;15.80;76.90
23231;DHT22;11784;49.818;8.632;2022-09-17T18:17:52;15.80;79.80
23231;DHT22;11784;49.818;8.632;2022-09-17T18:20:18;15.70;80.90
23231;DHT22;11784;49.818;8.632;2022-09-17T18:22:46;15.70;81.80
23231;DHT22;11784;49.818;8.632;2022-09-17T18:25:12;15.60;83.10
23231;DHT22;11784;49.818;8.632;2022-09-17T18:27:37;15.60;82.00
23231;DHT22;11784;49.818;8.632;2022-09-17T18:30:03;15.50;82.90
23231;DHT22;11784;49.818;8.632;2022-09-17T18:32:29;15.40;83.70
23231;DHT22;11784;49.818;8.632;2022-09-17T18:34:56;15.40;84.80
23231;DHT22;11784;49.818;8.632;2022-09-17T18:37:22;15.30;85.60
23231;DHT22;11784;49.818;8.632;2022-09-17T18:39:47;15.30;86.40